createdAt,value
2017-11-19T00:00:56.053Z,4.97
2017-11-19T00:03:24.378Z,5.03
2017-11-19T00:05:52.307Z,4.96
2017-11-19T00:08:20.244Z,4.95
2017-11-19T00:10:48.159Z,4.95
2017-11-19T00:13:16.121Z,4.87
2017-11-19T00:15:44.071Z,4.90
2017-11-19T00:18:12.395Z,4.84
2017-11-19T00:20:40.403Z,4.86
2017-11-19T00:23:08.341Z,4.91
2017-11-19T00:25:36.298Z,4.92
2017-11-19T00:28:04.221Z,4.89
2017-11-19T00:30:32.547Z,4.88
2017-11-19T00:33:00.501Z,4.90
2017-11-19T00:35:28.490Z,4.90
2017-11-19T00:37:56.595Z,4.88
2017-11-19T00:40:24.546Z,4.85
2017-11-19T00:42:52.672Z,4.87
2017-11-19T00:45:20.707Z,4.89
2017-11-19T00:47:48.635Z,4.95
2017-11-19T00:50:16.741Z,4.94
2017-11-19T00:52:44.687Z,5.01
2017-11-19T00:55:12.699Z,5.01
2017-11-19T00:57:41.115Z,4.98
2017-11-19T01:00:09.051Z,4.99
2017-11-19T01:02:37.442Z,4.77
2017-11-19T01:05:25.031Z,4.80
2017-11-19T01:07:53.071Z,4.76
2017-11-19T01:10:21.104Z,4.83
2017-11-19T01:12:49.054Z,4.72
2017-11-19T01:15:16.981Z,4.74
2017-11-19T01:17:44.896Z,4.82
2017-11-19T01:20:13.350Z,4.71
2017-11-19T01:22:41.279Z,4.58
2017-11-19T01:25:09.204Z,4.44
2017-11-19T01:27:37.762Z,4.33
2017-11-19T01:30:05.684Z,4.37
2017-11-19T01:32:33.615Z,4.36
2017-11-19T01:35:01.594Z,4.25
2017-11-19T01:37:29.889Z,4.28
2017-11-19T01:39:57.797Z,4.23
2017-11-19T01:42:25.751Z,4.11
2017-11-19T01:44:53.713Z,4.20
2017-11-19T01:47:21.673Z,4.20
2017-11-19T01:49:49.582Z,4.29
2017-11-19T01:52:17.518Z,4.23
2017-11-19T01:54:45.564Z,4.33
2017-11-19T01:57:13.881Z,4.27
2017-11-19T01:59:41.824Z,4.29
2017-11-19T02:02:09.753Z,4.24
2017-11-19T02:04:37.679Z,4.21
2017-11-19T02:07:05.673Z,4.15
2017-11-19T02:09:34.461Z,4.23
2017-11-19T02:12:02.455Z,4.24
2017-11-19T02:14:30.371Z,4.29
2017-11-19T02:16:58.298Z,4.32
2017-11-19T02:19:26.264Z,4.34
2017-11-19T02:21:54.167Z,4.39
2017-11-19T02:24:22.204Z,4.33
2017-11-19T02:26:50.124Z,4.34
2017-11-19T02:29:18.047Z,4.37
2017-11-19T02:31:46.363Z,4.31
2017-11-19T02:34:14.318Z,4.38
2017-11-19T02:36:42.252Z,4.36
2017-11-19T02:39:10.151Z,4.38
2017-11-19T02:41:38.077Z,4.36
2017-11-19T02:44:06.000Z,4.34
2017-11-19T02:46:34.046Z,4.40
2017-11-19T02:49:01.971Z,4.35
2017-11-19T02:51:29.906Z,4.31
2017-11-19T02:53:57.864Z,4.28
2017-11-19T02:56:25.799Z,4.34
2017-11-19T02:58:53.750Z,4.29
2017-11-19T03:01:21.660Z,4.32
2017-11-19T03:03:49.565Z,4.24
2017-11-19T03:06:17.490Z,4.18
2017-11-19T03:08:45.406Z,4.21
2017-11-19T03:11:13.341Z,4.14
2017-11-19T03:13:41.319Z,4.11
2017-11-19T03:16:09.284Z,4.11
2017-11-19T03:18:37.257Z,4.11
2017-11-19T03:21:05.192Z,4.10
2017-11-19T03:23:33.591Z,4.15
2017-11-19T03:26:01.537Z,4.15
2017-11-19T03:28:29.869Z,4.17
2017-11-19T03:30:57.803Z,4.16
2017-11-19T03:33:25.743Z,4.20
2017-11-19T03:35:54.051Z,4.23
2017-11-19T03:38:21.997Z,4.20
2017-11-19T03:40:50.447Z,4.28
2017-11-19T03:43:18.422Z,4.31
2017-11-19T03:45:46.396Z,4.29
2017-11-19T03:48:14.301Z,4.18
2017-11-19T03:50:42.222Z,4.20
2017-11-19T03:53:10.139Z,4.20
2017-11-19T03:55:38.067Z,4.17
2017-11-19T03:58:06.008Z,4.16
2017-11-19T04:00:34.014Z,4.25
2017-11-19T04:03:01.970Z,4.27
2017-11-19T04:05:29.891Z,4.27
2017-11-19T04:07:57.866Z,4.31
2017-11-19T04:10:25.785Z,4.31
2017-11-19T04:12:53.708Z,4.31
2017-11-19T04:15:21.675Z,4.35
2017-11-19T04:17:49.590Z,4.35
2017-11-19T04:20:17.601Z,4.34
2017-11-19T04:22:45.554Z,4.34
2017-11-19T04:25:13.865Z,4.31
2017-11-19T04:27:41.778Z,4.28
2017-11-19T04:30:09.695Z,4.23
2017-11-19T04:32:37.715Z,4.21
2017-11-19T04:35:05.707Z,4.15
2017-11-19T04:37:34.009Z,4.10
2017-11-19T04:40:02.026Z,4.16
2017-11-19T04:42:29.974Z,4.13
2017-11-19T04:44:57.919Z,4.18
2017-11-19T04:47:25.953Z,4.16
2017-11-19T04:49:54.259Z,4.15
2017-11-19T04:52:22.231Z,4.22
2017-11-19T04:54:50.144Z,4.18
2017-11-19T04:57:18.065Z,4.09
2017-11-19T04:59:46.002Z,4.07
2017-11-19T05:02:14.324Z,4.04
2017-11-19T05:04:42.229Z,4.02
2017-11-19T05:07:10.356Z,4.02
2017-11-19T05:09:38.269Z,4.00
2017-11-19T05:12:06.234Z,4.01
2017-11-19T05:14:34.129Z,4.05
2017-11-19T05:17:02.445Z,4.02
2017-11-19T05:19:30.398Z,4.06
2017-11-19T05:21:58.445Z,4.07
2017-11-19T05:24:26.316Z,4.11
2017-11-19T05:26:54.365Z,4.12
2017-11-19T05:29:22.849Z,4.12
2017-11-19T05:31:50.786Z,4.16
2017-11-19T05:34:18.709Z,4.17
2017-11-19T05:36:47.052Z,4.18
2017-11-19T05:39:15.026Z,4.19
2017-11-19T05:41:42.921Z,4.08
2017-11-19T05:44:10.833Z,4.04
2017-11-19T05:46:38.833Z,4.07
2017-11-19T05:49:06.737Z,4.10
2017-11-19T05:51:34.656Z,4.14
2017-11-19T05:54:02.634Z,4.16
2017-11-19T05:56:30.574Z,4.27
2017-11-19T05:58:58.510Z,4.33
2017-11-19T06:01:26.546Z,4.42
2017-11-19T06:03:54.452Z,4.44
2017-11-19T06:06:22.418Z,4.46
2017-11-19T06:08:50.338Z,4.43
2017-11-19T06:11:18.317Z,4.27
2017-11-19T06:13:46.285Z,4.29
2017-11-19T06:16:14.194Z,4.29
2017-11-19T06:18:42.112Z,4.34
2017-11-19T06:21:10.080Z,4.38
2017-11-19T06:23:38.069Z,4.40
2017-11-19T06:26:05.978Z,4.42
2017-11-19T06:28:33.891Z,4.42
2017-11-19T06:31:01.839Z,4.49
2017-11-19T06:33:30.742Z,4.45
2017-11-19T06:35:58.834Z,4.44
2017-11-19T06:38:26.749Z,4.52
2017-11-19T06:40:54.691Z,4.52
2017-11-19T06:43:22.995Z,4.54
2017-11-19T06:45:50.902Z,4.58
2017-11-19T06:48:18.873Z,4.53
2017-11-19T06:50:46.775Z,4.56
2017-11-19T06:53:15.093Z,4.64
2017-11-19T06:55:42.994Z,4.70
2017-11-19T06:58:10.954Z,4.72
2017-11-19T07:00:38.921Z,4.70
2017-11-19T07:03:06.828Z,4.66
2017-11-19T07:05:35.166Z,4.72
2017-11-19T07:08:03.082Z,4.75
2017-11-19T07:10:30.994Z,4.78
2017-11-19T07:12:58.974Z,4.78
2017-11-19T07:15:26.901Z,4.85
2017-11-19T07:17:54.802Z,4.89
2017-11-19T07:20:22.732Z,4.89
2017-11-19T07:22:50.658Z,4.94
2017-11-19T07:25:18.612Z,4.95
2017-11-19T07:27:46.538Z,5.03
2017-11-19T07:30:14.511Z,5.07
2017-11-19T07:32:42.463Z,5.08
2017-11-19T07:35:10.490Z,5.13
2017-11-19T07:37:38.415Z,5.20
2017-11-19T07:40:06.353Z,5.13
2017-11-19T07:42:34.714Z,5.28
2017-11-19T07:45:02.626Z,5.35
2017-11-19T07:47:30.642Z,5.41
2017-11-19T07:49:58.557Z,5.49
2017-11-19T07:52:26.469Z,5.67
2017-11-19T07:54:54.557Z,5.79
2017-11-19T07:57:22.921Z,5.84
2017-11-19T07:59:50.907Z,5.83
2017-11-19T08:02:18.925Z,5.83
2017-11-19T08:04:46.852Z,5.82
2017-11-19T08:07:14.750Z,5.91
2017-11-19T08:09:42.790Z,5.94
2017-11-19T08:12:10.759Z,6.00
2017-11-19T08:14:44.151Z,6.16
2017-11-19T08:17:12.106Z,6.10
2017-11-19T08:19:40.010Z,6.16
2017-11-19T08:22:07.994Z,6.29
2017-11-19T08:24:35.923Z,6.17
2017-11-19T08:27:04.252Z,6.04
2017-11-19T08:29:32.357Z,6.05
2017-11-19T08:32:00.330Z,6.04
2017-11-19T08:34:28.770Z,6.06
2017-11-19T08:36:56.679Z,6.21
2017-11-19T08:39:24.869Z,6.15
2017-11-19T08:41:52.781Z,6.19
2017-11-19T08:44:20.685Z,6.23
2017-11-19T08:46:48.758Z,6.23
2017-11-19T08:49:16.842Z,6.37
2017-11-19T08:51:44.897Z,6.36
2017-11-19T08:54:12.809Z,6.33
2017-11-19T08:56:40.709Z,6.38
2017-11-19T08:59:08.622Z,6.25
2017-11-19T09:01:37.027Z,6.26
2017-11-19T09:04:05.157Z,6.27
2017-11-19T09:06:33.226Z,6.24
2017-11-19T09:09:01.133Z,6.36
2017-11-19T09:11:29.479Z,6.32
2017-11-19T09:13:57.430Z,6.24
2017-11-19T09:16:25.435Z,6.34
2017-11-19T09:18:53.813Z,6.31
2017-11-19T09:21:22.114Z,6.40
2017-11-19T09:23:50.038Z,6.34
2017-11-19T09:26:17.966Z,6.36
2017-11-19T09:28:45.976Z,6.48
2017-11-19T09:31:13.898Z,6.38
2017-11-19T09:33:41.807Z,6.34
2017-11-19T09:36:09.796Z,6.27
2017-11-19T09:38:37.709Z,6.19
2017-11-19T09:41:05.627Z,6.23
2017-11-19T09:43:33.790Z,6.30
2017-11-19T09:46:01.759Z,6.42
2017-11-19T09:48:29.693Z,6.33
2017-11-19T09:50:57.601Z,6.30
2017-11-19T09:53:25.501Z,6.42
2017-11-19T09:55:53.432Z,6.38
2017-11-19T09:58:21.336Z,6.45
2017-11-19T10:00:49.315Z,6.38
2017-11-19T10:03:17.220Z,6.45
2017-11-19T10:05:45.216Z,6.49
2017-11-19T10:08:13.189Z,6.49
2017-11-19T10:10:41.112Z,6.51
2017-11-19T10:13:09.009Z,6.51
2017-11-19T10:15:36.983Z,6.38
2017-11-19T10:18:04.897Z,6.32
2017-11-19T10:20:32.913Z,6.19
2017-11-19T10:23:00.889Z,6.05
2017-11-19T10:25:28.798Z,5.94
2017-11-19T10:27:56.722Z,5.93
2017-11-19T10:30:24.629Z,6.05
2017-11-19T10:32:52.726Z,6.06
2017-11-19T10:35:20.734Z,6.07
2017-11-19T10:37:48.639Z,6.15
2017-11-19T10:40:16.553Z,6.20
2017-11-19T10:42:44.463Z,6.31
2017-11-19T10:45:12.776Z,6.39
2017-11-19T10:47:40.811Z,6.40
2017-11-19T10:50:09.157Z,6.48
2017-11-19T10:52:37.064Z,6.43
2017-11-19T10:55:04.966Z,6.46
2017-11-19T10:57:32.894Z,6.55
2017-11-19T11:00:00.803Z,6.66
2017-11-19T11:02:29.330Z,6.68
2017-11-19T11:04:57.626Z,6.80
2017-11-19T11:07:25.556Z,6.82
2017-11-19T11:09:53.467Z,6.72
2017-11-19T11:12:21.370Z,6.69
2017-11-19T11:14:49.367Z,6.65
2017-11-19T11:17:17.303Z,6.57
2017-11-19T11:19:45.246Z,6.52
2017-11-19T11:22:13.162Z,6.40
2017-11-19T11:24:41.154Z,6.49
2017-11-19T11:27:09.485Z,6.58
2017-11-19T11:29:37.381Z,6.69
2017-11-19T11:32:05.313Z,6.61
2017-11-19T11:34:33.228Z,6.88
2017-11-19T11:37:01.166Z,7.16
2017-11-19T11:39:29.099Z,7.15
2017-11-19T11:41:57.001Z,7.08
2017-11-19T11:44:24.926Z,6.96
2017-11-19T11:46:52.866Z,7.08
2017-11-19T11:49:20.827Z,7.07
2017-11-19T11:51:48.746Z,7.04
2017-11-19T11:54:16.669Z,7.08
2017-11-19T11:56:44.576Z,6.91
2017-11-19T11:59:12.485Z,7.01
2017-11-19T12:01:40.386Z,6.90
2017-11-19T12:04:08.717Z,6.84
2017-11-19T12:06:36.629Z,6.86
2017-11-19T12:09:04.934Z,6.73
2017-11-19T12:11:32.842Z,6.68
2017-11-19T12:14:00.756Z,6.76
2017-11-19T12:16:29.101Z,6.86
2017-11-19T12:18:57.021Z,6.84
2017-11-19T12:21:24.951Z,6.80
2017-11-19T12:23:52.857Z,6.65
2017-11-19T12:26:20.784Z,6.51
2017-11-19T12:28:48.734Z,6.42
2017-11-19T12:31:16.660Z,6.44
2017-11-19T12:33:44.614Z,6.39
2017-11-19T12:36:12.923Z,6.35
2017-11-19T12:38:40.823Z,6.30
2017-11-19T12:41:08.733Z,6.24
2017-11-19T12:43:36.655Z,6.33
2017-11-19T12:46:04.563Z,6.36
2017-11-19T12:48:32.499Z,6.45
2017-11-19T12:51:00.429Z,6.49
2017-11-19T12:53:28.351Z,6.43
2017-11-19T12:55:56.684Z,6.38
2017-11-19T12:58:24.611Z,6.40
2017-11-19T13:00:52.905Z,6.44
2017-11-19T13:03:20.849Z,6.52
2017-11-19T13:05:49.160Z,6.50
2017-11-19T13:08:17.091Z,6.58
2017-11-19T13:10:45.416Z,6.64
2017-11-19T13:13:13.337Z,6.64
2017-11-19T13:15:41.649Z,6.66
2017-11-19T13:18:09.561Z,6.79
2017-11-19T13:20:37.488Z,6.83
2017-11-19T13:23:05.393Z,6.85
2017-11-19T13:25:33.382Z,6.77
2017-11-19T13:28:01.684Z,6.77
2017-11-19T13:30:29.595Z,6.71
2017-11-19T13:32:57.504Z,6.60
2017-11-19T13:35:25.816Z,6.50
2017-11-19T13:37:53.721Z,6.44
2017-11-19T13:40:22.401Z,6.44
2017-11-19T13:42:50.297Z,6.38
2017-11-19T13:45:18.610Z,6.33
2017-11-19T13:47:46.513Z,6.32
2017-11-19T13:50:14.456Z,6.27
2017-11-19T13:52:42.386Z,6.29
2017-11-19T13:55:11.721Z,6.30
2017-11-19T13:57:39.657Z,6.28
2017-11-19T14:00:07.970Z,6.29
2017-11-19T14:02:35.895Z,6.35
2017-11-19T14:05:04.251Z,6.35
2017-11-19T14:07:32.213Z,6.38
2017-11-19T14:10:00.148Z,6.35
2017-11-19T14:12:28.067Z,6.37
2017-11-19T14:14:55.985Z,6.32
2017-11-19T14:17:23.927Z,6.36
2017-11-19T14:19:51.866Z,6.35
2017-11-19T14:22:19.787Z,6.33
2017-11-19T14:24:47.698Z,6.36
2017-11-19T14:27:15.610Z,6.35
2017-11-19T14:29:43.633Z,6.41
2017-11-19T14:32:11.561Z,6.47
2017-11-19T14:34:39.468Z,6.40
2017-11-19T14:37:07.434Z,6.45
2017-11-19T14:39:35.416Z,6.43
2017-11-19T14:42:03.348Z,6.35
2017-11-19T14:44:31.258Z,6.25
2017-11-19T14:46:59.174Z,6.16
2017-11-19T14:49:27.077Z,6.06
2017-11-19T14:51:55.003Z,6.00
2017-11-19T14:54:22.928Z,5.92
2017-11-19T14:56:50.858Z,5.93
2017-11-19T14:59:18.783Z,5.88
2017-11-19T15:01:47.118Z,5.87
2017-11-19T15:04:15.033Z,5.84
2017-11-19T15:06:43.341Z,5.79
2017-11-19T15:09:11.259Z,5.76
2017-11-19T15:11:39.623Z,5.76
2017-11-19T15:14:07.537Z,5.75
2017-11-19T15:16:35.535Z,5.73
2017-11-19T15:19:03.485Z,5.72
2017-11-19T15:21:31.407Z,5.81
2017-11-19T15:23:59.349Z,5.82
2017-11-19T15:26:28.271Z,5.87
2017-11-19T15:28:56.598Z,5.90
2017-11-19T15:31:24.513Z,5.81
2017-11-19T15:33:52.431Z,5.79
2017-11-19T15:36:20.450Z,5.72
2017-11-19T15:38:48.450Z,5.72
2017-11-19T15:41:16.586Z,5.61
2017-11-19T15:43:44.578Z,5.64
2017-11-19T15:46:12.908Z,5.64
2017-11-19T15:48:41.870Z,5.63
2017-11-19T15:51:09.810Z,5.53
2017-11-19T15:53:38.141Z,5.45
2017-11-19T15:56:06.043Z,5.41
2017-11-19T15:58:33.966Z,5.41
2017-11-19T16:01:01.877Z,5.42
2017-11-19T16:03:29.828Z,5.42
2017-11-19T16:05:57.754Z,5.46
2017-11-19T16:08:25.681Z,5.52
2017-11-19T16:10:54.470Z,5.65
2017-11-19T16:13:22.405Z,5.67
2017-11-19T16:15:50.338Z,5.65
2017-11-19T16:18:18.275Z,5.64
2017-11-19T16:20:46.191Z,5.28
2017-11-19T16:23:14.096Z,5.00
2017-11-19T16:25:42.031Z,4.83
2017-11-19T16:28:09.932Z,4.80
2017-11-19T16:30:37.888Z,4.86
2017-11-19T16:33:05.800Z,4.75
2017-11-19T16:35:34.107Z,4.54
2017-11-19T16:38:02.016Z,4.48
2017-11-19T16:40:29.929Z,4.65
2017-11-19T16:42:57.854Z,4.87
2017-11-19T16:45:25.776Z,5.08
2017-11-19T16:47:53.702Z,5.16
2017-11-19T16:50:21.619Z,5.24
2017-11-19T16:52:49.527Z,5.18
2017-11-19T16:55:17.471Z,4.94
2017-11-19T16:57:45.467Z,4.86
2017-11-19T17:00:13.397Z,4.90
2017-11-19T17:02:41.356Z,4.96
2017-11-19T17:05:09.266Z,5.02
2017-11-19T17:07:37.175Z,4.95
2017-11-19T17:10:05.081Z,4.85
2017-11-19T17:12:32.989Z,4.78
2017-11-19T17:15:01.290Z,4.69
2017-11-19T17:17:29.220Z,4.66
2017-11-19T17:19:57.134Z,4.66
2017-11-19T17:22:25.055Z,4.64
2017-11-19T17:24:52.973Z,4.58
2017-11-19T17:27:20.877Z,4.58
2017-11-19T17:29:48.802Z,4.57
2017-11-19T17:32:16.723Z,4.58
2017-11-19T17:34:44.638Z,4.60
2017-11-19T17:37:12.582Z,4.67
2017-11-19T17:39:40.899Z,4.73
2017-11-19T17:42:08.818Z,4.79
2017-11-19T17:44:36.721Z,4.86
2017-11-19T17:47:04.631Z,4.91
2017-11-19T17:49:32.542Z,4.97
2017-11-19T17:52:00.465Z,4.94
2017-11-19T17:54:28.387Z,4.98
2017-11-19T17:56:56.297Z,4.94
2017-11-19T17:59:24.223Z,4.86
2017-11-19T18:01:52.138Z,4.78
2017-11-19T18:04:20.064Z,4.75
2017-11-19T18:06:47.977Z,4.75
2017-11-19T18:09:15.922Z,4.77
2017-11-19T18:11:43.873Z,4.82
2017-11-19T18:14:11.785Z,4.89
2017-11-19T18:16:39.711Z,4.92
2017-11-19T18:19:07.634Z,4.91
2017-11-19T18:21:35.969Z,4.93
2017-11-19T18:24:03.881Z,4.93
2017-11-19T18:26:31.841Z,4.94
2017-11-19T18:29:00.295Z,4.97
2017-11-19T18:31:28.551Z,5.05
2017-11-19T18:33:56.491Z,5.01
2017-11-19T18:36:24.797Z,4.99
2017-11-19T18:38:52.721Z,4.99
2017-11-19T18:41:20.642Z,5.03
2017-11-19T18:43:48.646Z,5.03
2017-11-19T18:46:16.644Z,5.07
2017-11-19T18:48:44.959Z,5.10
2017-11-19T18:51:12.947Z,5.07
2017-11-19T18:53:40.885Z,5.03
2017-11-19T18:56:08.825Z,5.02
2017-11-19T18:58:37.180Z,4.98
2017-11-19T19:01:05.142Z,4.94
2017-11-19T19:03:33.097Z,4.92
2017-11-19T19:06:01.018Z,4.88
2017-11-19T19:08:28.949Z,4.87
2017-11-19T19:10:56.926Z,4.84
2017-11-19T19:13:24.867Z,4.81
2017-11-19T19:15:52.794Z,4.82
2017-11-19T19:18:21.111Z,4.83
2017-11-19T19:20:49.052Z,4.80
2017-11-19T19:23:17.000Z,4.85
2017-11-19T19:25:44.923Z,4.85
2017-11-19T19:28:12.847Z,4.87
2017-11-19T19:30:40.785Z,4.83
2017-11-19T19:33:09.097Z,4.77
2017-11-19T19:35:37.031Z,4.73
2017-11-19T19:38:06.374Z,4.76
2017-11-19T19:40:34.293Z,4.74
2017-11-19T19:43:02.266Z,4.73
2017-11-19T19:45:30.199Z,4.76
2017-11-19T19:47:58.150Z,4.76
2017-11-19T19:50:26.076Z,4.80
2017-11-19T19:52:54.037Z,4.73
2017-11-19T19:55:21.982Z,4.77
2017-11-19T19:57:49.957Z,4.77
2017-11-19T20:00:17.877Z,4.81
2017-11-19T20:02:45.808Z,4.87
2017-11-19T20:05:13.801Z,4.97
2017-11-19T20:07:42.125Z,5.04
2017-11-19T20:10:10.095Z,5.11
2017-11-19T20:12:38.023Z,5.14
2017-11-19T20:15:06.345Z,5.16
2017-11-19T20:17:34.261Z,5.17
2017-11-19T20:20:02.589Z,5.17
2017-11-19T20:22:30.516Z,5.20
2017-11-19T20:24:58.434Z,5.18
2017-11-19T20:27:26.845Z,5.17
2017-11-19T20:29:54.765Z,5.16
2017-11-19T20:32:22.831Z,5.16
2017-11-19T20:34:50.740Z,5.17
2017-11-19T20:37:18.672Z,5.15
2017-11-19T20:39:46.591Z,5.10
2017-11-19T20:42:14.956Z,5.10
2017-11-19T20:44:42.861Z,5.11
2017-11-19T20:47:10.774Z,5.16
2017-11-19T20:49:38.718Z,5.18
2017-11-19T20:52:06.625Z,5.16
2017-11-19T20:54:34.574Z,5.18
2017-11-19T20:57:02.520Z,5.16
2017-11-19T20:59:30.494Z,5.16
2017-11-19T21:01:58.421Z,5.11
2017-11-19T21:04:26.739Z,5.12
2017-11-19T21:06:54.675Z,5.11
2017-11-19T21:09:22.981Z,5.10
2017-11-19T21:11:50.910Z,5.02
2017-11-19T21:14:19.234Z,5.07
2017-11-19T21:16:47.155Z,5.20
2017-11-19T21:19:15.486Z,5.24
2017-11-19T21:21:43.423Z,5.27
2017-11-19T21:24:11.341Z,5.23
2017-11-19T21:26:39.250Z,5.19
2017-11-19T21:29:07.605Z,5.20
2017-11-19T21:31:35.535Z,5.21
2017-11-19T21:34:03.481Z,5.20
2017-11-19T21:36:31.409Z,5.23
2017-11-19T21:38:59.331Z,5.12
2017-11-19T21:41:27.259Z,5.05
2017-11-19T21:43:55.594Z,4.92
2017-11-19T21:46:23.517Z,4.89
2017-11-19T21:48:51.441Z,4.94
2017-11-19T21:51:19.364Z,4.88
2017-11-19T21:53:47.293Z,4.87
2017-11-19T21:56:15.221Z,4.85
2017-11-19T21:58:43.149Z,4.80
2017-11-19T22:01:11.073Z,4.81
2017-11-19T22:03:39.022Z,4.79
2017-11-19T22:06:06.933Z,4.77
2017-11-19T22:08:34.859Z,4.71
2017-11-19T22:11:02.770Z,4.69
2017-11-19T22:13:31.082Z,4.69
2017-11-19T22:15:59.014Z,4.61
2017-11-19T22:18:26.927Z,4.49
2017-11-19T22:20:54.840Z,4.52
2017-11-19T22:23:22.800Z,4.50
2017-11-19T22:25:50.725Z,4.45
2017-11-19T22:28:18.625Z,4.46
2017-11-19T22:30:46.554Z,4.39
2017-11-19T22:33:14.551Z,4.31
2017-11-19T22:35:42.484Z,4.32
2017-11-19T22:38:10.434Z,4.33
2017-11-19T22:40:38.341Z,4.28
2017-11-19T22:43:06.264Z,4.18
2017-11-19T22:45:34.195Z,4.17
2017-11-19T22:48:02.106Z,4.10
2017-11-19T22:50:30.036Z,4.04
2017-11-19T22:52:57.977Z,3.99
2017-11-19T22:55:25.912Z,4.00
2017-11-19T22:57:53.841Z,3.96
2017-11-19T23:00:21.758Z,3.97
2017-11-19T23:02:50.069Z,3.93
2017-11-19T23:05:17.996Z,3.89
2017-11-19T23:07:46.331Z,3.86
2017-11-19T23:10:14.251Z,3.84
2017-11-19T23:12:42.565Z,3.80
2017-11-19T23:15:10.477Z,3.82
2017-11-19T23:17:38.418Z,3.83
2017-11-19T23:20:06.329Z,3.77
2017-11-19T23:22:34.660Z,3.77
2017-11-19T23:25:02.589Z,3.71
2017-11-19T23:27:30.497Z,3.72
2017-11-19T23:29:58.428Z,3.73
2017-11-19T23:32:26.353Z,3.67
2017-11-19T23:34:54.269Z,3.66
2017-11-19T23:37:22.186Z,3.64
2017-11-19T23:39:50.102Z,3.65
2017-11-19T23:42:18.020Z,3.60
2017-11-19T23:44:45.996Z,3.60
2017-11-19T23:47:13.921Z,3.51
2017-11-19T23:49:41.825Z,3.54
2017-11-19T23:52:09.753Z,3.49
2017-11-19T23:54:37.670Z,3.46
2017-11-19T23:57:05.620Z,3.45
2017-11-19T23:59:33.542Z,3.46
